createdAt,value
2018-12-24T00:02:14.452Z,6.03
2018-12-24T00:04:46.242Z,5.70
2018-12-24T00:07:17.679Z,5.17
2018-12-24T00:09:49.247Z,5.27
2018-12-24T00:12:20.921Z,5.43
2018-12-24T00:14:52.460Z,5.13
2018-12-24T00:17:23.907Z,6.00
2018-12-24T00:19:55.632Z,5.87
2018-12-24T00:22:27.263Z,5.10
2018-12-24T00:24:58.836Z,4.70
2018-12-24T00:27:30.744Z,5.50
2018-12-24T00:30:03.202Z,4.17
2018-12-24T00:32:35.148Z,4.63
2018-12-24T00:35:06.928Z,4.37
2018-12-24T00:37:38.374Z,5.00
2018-12-24T00:40:10.243Z,4.10
2018-12-24T00:42:42.091Z,4.47
2018-12-24T00:45:13.947Z,4.87
2018-12-24T00:47:45.400Z,4.50
2018-12-24T00:50:16.799Z,5.17
2018-12-24T00:52:48.201Z,4.17
2018-12-24T00:55:20.117Z,5.20
2018-12-24T00:57:51.706Z,5.40
2018-12-24T01:00:23.372Z,4.70
2018-12-24T01:02:55.422Z,4.53
2018-12-24T01:05:26.895Z,5.33
2018-12-24T01:07:58.246Z,4.87
2018-12-24T01:10:30.102Z,4.67
2018-12-24T01:13:01.833Z,6.07
2018-12-24T01:15:33.188Z,5.53
2018-12-24T01:18:05.501Z,6.80
2018-12-24T01:20:36.817Z,6.20
2018-12-24T01:23:08.739Z,5.90
2018-12-24T01:25:40.217Z,6.67
2018-12-24T01:28:12.633Z,6.00
2018-12-24T01:30:44.192Z,5.40
2018-12-24T01:33:15.867Z,5.20
2018-12-24T01:35:47.655Z,4.00
2018-12-24T01:38:19.422Z,5.17
2018-12-24T01:40:50.973Z,4.90
2018-12-24T01:43:22.684Z,4.90
2018-12-24T01:45:54.201Z,3.43
2018-12-24T01:48:25.767Z,3.77
2018-12-24T01:50:57.535Z,4.70
2018-12-24T01:53:29.152Z,4.37
2018-12-24T01:56:00.862Z,4.00
2018-12-24T01:58:33.088Z,4.70
2018-12-24T02:01:04.748Z,4.63
2018-12-24T02:03:36.387Z,3.80
2018-12-24T02:06:07.987Z,4.77
2018-12-24T02:08:39.827Z,4.73
2018-12-24T02:11:11.746Z,4.37
2018-12-24T02:13:44.153Z,4.37
2018-12-24T02:16:16.136Z,3.97
2018-12-24T02:18:47.889Z,3.77
2018-12-24T02:21:19.318Z,3.90
2018-12-24T02:23:50.899Z,3.67
2018-12-24T02:26:22.454Z,3.10
2018-12-24T02:28:53.907Z,4.13
2018-12-24T02:31:25.399Z,4.23
2018-12-24T02:33:57.217Z,4.20
2018-12-24T02:36:28.686Z,3.40
2018-12-24T02:39:00.137Z,3.50
2018-12-24T02:41:31.575Z,3.70
2018-12-24T02:44:03.952Z,3.87
2018-12-24T02:46:35.786Z,4.13
2018-12-24T02:49:07.233Z,3.57
2018-12-24T02:51:38.952Z,3.40
2018-12-24T02:54:10.532Z,3.57
2018-12-24T02:56:44.822Z,3.37
2018-12-24T02:59:16.404Z,3.03
2018-12-24T03:01:48.107Z,3.20
2018-12-24T03:04:20.268Z,2.63
2018-12-24T03:06:51.722Z,3.30
2018-12-24T03:09:23.986Z,3.73
2018-12-24T03:11:55.554Z,4.67
2018-12-24T03:14:27.201Z,4.63
2018-12-24T03:16:59.836Z,5.37
2018-12-24T03:19:31.261Z,4.40
2018-12-24T03:22:02.716Z,4.43
2018-12-24T03:24:34.674Z,4.30
2018-12-24T03:27:06.311Z,3.30
2018-12-24T03:29:37.541Z,4.70
2018-12-24T03:32:09.143Z,5.50
2018-12-24T03:34:40.811Z,4.10
2018-12-24T03:37:12.449Z,16.33
2018-12-24T03:39:45.536Z,6.37
2018-12-24T03:42:16.896Z,3.30
2018-12-24T03:44:48.793Z,3.40
2018-12-24T03:47:20.347Z,3.17
2018-12-24T03:49:51.721Z,3.00
2018-12-24T03:52:23.091Z,3.00
2018-12-24T03:54:54.985Z,3.40
2018-12-24T03:57:26.636Z,3.83
2018-12-24T03:59:58.176Z,3.40
2018-12-24T04:02:29.801Z,3.93
2018-12-24T04:05:01.332Z,4.10
2018-12-24T04:07:32.831Z,4.20
2018-12-24T04:10:04.538Z,3.07
2018-12-24T04:12:36.185Z,2.80
2018-12-24T04:15:08.128Z,2.90
2018-12-24T04:17:39.627Z,2.53
2018-12-24T04:20:14.423Z,4.37
2018-12-24T04:22:46.295Z,3.17
2018-12-24T04:25:17.643Z,3.83
2018-12-24T04:27:49.096Z,3.00
2018-12-24T04:30:20.746Z,2.13
2018-12-24T04:32:52.469Z,2.13
2018-12-24T04:35:24.542Z,2.63
2018-12-24T04:37:57.473Z,2.40
2018-12-24T04:40:29.029Z,2.67
2018-12-24T04:43:00.362Z,2.90
2018-12-24T04:45:32.250Z,2.50
2018-12-24T04:48:03.763Z,2.90
2018-12-24T04:50:35.189Z,3.80
2018-12-24T04:53:06.742Z,3.60
2018-12-24T04:55:38.538Z,2.30
2018-12-24T04:58:10.253Z,2.20
2018-12-24T05:00:42.146Z,2.20
2018-12-24T05:03:14.124Z,2.30
2018-12-24T05:05:45.836Z,2.67
2018-12-24T05:08:17.518Z,3.27
2018-12-24T05:10:49.029Z,2.77
2018-12-24T05:13:20.918Z,2.50
2018-12-24T05:15:52.608Z,3.27
2018-12-24T05:18:23.955Z,3.87
2018-12-24T05:20:55.508Z,3.60
2018-12-24T05:23:27.266Z,3.03
2018-12-24T05:25:58.661Z,3.60
2018-12-24T05:28:30.121Z,3.37
2018-12-24T05:31:01.680Z,3.80
2018-12-24T05:33:38.505Z,3.30
2018-12-24T05:36:10.254Z,3.17
2018-12-24T05:38:42.113Z,3.30
2018-12-24T05:41:13.816Z,3.83
2018-12-24T05:43:49.366Z,3.67
2018-12-24T05:46:18.924Z,4.63
2018-12-24T05:48:50.292Z,4.07
2018-12-24T05:51:21.836Z,3.40
2018-12-24T05:53:54.129Z,4.77
2018-12-24T05:56:25.679Z,4.30
2018-12-24T05:58:57.333Z,3.73
2018-12-24T06:01:29.719Z,4.00
2018-12-24T06:04:01.368Z,4.20
2018-12-24T06:06:32.880Z,4.60
2018-12-24T06:09:06.352Z,3.90
2018-12-24T06:11:38.008Z,4.07
2018-12-24T06:14:10.306Z,3.80
2018-12-24T06:16:42.004Z,3.73
2018-12-24T06:19:13.849Z,3.67
2018-12-24T06:21:45.315Z,3.60
2018-12-24T06:24:17.258Z,4.73
2018-12-24T06:26:48.805Z,3.70
2018-12-24T06:29:20.632Z,3.97
2018-12-24T06:31:51.960Z,3.17
2018-12-24T06:34:24.287Z,3.60
2018-12-24T06:36:55.662Z,4.13
2018-12-24T06:39:27.380Z,3.30
2018-12-24T06:42:00.830Z,3.20
2018-12-24T06:44:32.451Z,3.93
2018-12-24T06:47:04.131Z,4.00
2018-12-24T06:49:35.754Z,3.47
2018-12-24T06:52:07.114Z,3.37
2018-12-24T06:54:38.622Z,3.37
2018-12-24T06:57:10.415Z,3.50
2018-12-24T06:59:42.676Z,4.20
2018-12-24T07:02:14.305Z,4.00
2018-12-24T07:04:46.539Z,3.30
2018-12-24T07:07:17.784Z,3.27
2018-12-24T07:09:49.244Z,3.83
2018-12-24T07:12:20.434Z,4.20
2018-12-24T07:14:52.256Z,7.60
2018-12-24T07:17:23.686Z,8.10
2018-12-24T07:19:55.000Z,10.20
2018-12-24T07:22:26.487Z,5.40
2018-12-24T07:24:57.937Z,5.73
2018-12-24T07:27:29.563Z,4.80
2018-12-24T07:30:01.152Z,4.57
2018-12-24T07:32:32.543Z,3.63
2018-12-24T07:35:04.477Z,3.10
2018-12-24T07:37:36.101Z,3.73
2018-12-24T07:40:07.652Z,3.60
2018-12-24T07:42:39.073Z,3.20
2018-12-24T07:45:12.221Z,3.90
2018-12-24T07:47:43.995Z,3.80
2018-12-24T07:50:16.490Z,3.33
2018-12-24T07:52:50.052Z,3.47
2018-12-24T07:55:21.788Z,4.30
2018-12-24T07:57:56.071Z,4.50
2018-12-24T08:00:27.954Z,4.33
2018-12-24T08:02:59.536Z,4.67
2018-12-24T08:05:31.054Z,4.07
2018-12-24T08:08:02.962Z,4.50
2018-12-24T08:10:34.352Z,3.80
2018-12-24T08:13:05.998Z,4.47
2018-12-24T08:15:37.994Z,4.80
2018-12-24T08:18:09.765Z,5.57
2018-12-24T08:20:41.339Z,5.00
2018-12-24T08:23:14.307Z,6.50
2018-12-24T08:25:46.897Z,6.33
2018-12-24T08:28:18.713Z,5.10
2018-12-24T08:30:52.056Z,5.50
2018-12-24T08:33:23.947Z,5.30
2018-12-24T08:35:55.374Z,6.00
2018-12-24T08:38:26.917Z,6.07
2018-12-24T08:40:58.579Z,6.90
2018-12-24T08:43:30.504Z,7.07
2018-12-24T08:46:02.330Z,7.00
2018-12-24T08:48:33.793Z,7.73
2018-12-24T08:51:05.860Z,8.03
2018-12-24T08:53:37.637Z,10.20
2018-12-24T08:56:09.301Z,9.87
2018-12-24T08:58:40.683Z,9.57
2018-12-24T09:01:12.958Z,9.20
2018-12-24T09:03:44.665Z,7.23
2018-12-24T09:06:17.847Z,8.43
2018-12-24T09:08:49.582Z,8.10
2018-12-24T09:11:21.142Z,8.00
2018-12-24T09:13:53.054Z,7.90
2018-12-24T09:16:24.932Z,7.73
2018-12-24T09:18:56.774Z,7.90
2018-12-24T09:21:28.338Z,7.00
2018-12-24T09:23:59.941Z,6.50
2018-12-24T09:26:31.742Z,6.40
2018-12-24T09:29:03.237Z,6.10
2018-12-24T09:31:35.459Z,6.17
2018-12-24T09:34:13.245Z,5.33
2018-12-24T09:36:45.131Z,5.70
2018-12-24T09:39:17.025Z,5.90
2018-12-24T09:41:48.580Z,5.97
2018-12-24T09:44:20.088Z,5.77
2018-12-24T09:46:51.617Z,4.83
2018-12-24T09:49:23.403Z,5.90
2018-12-24T09:51:55.096Z,5.50
2018-12-24T09:54:27.102Z,6.67
2018-12-24T09:56:58.733Z,6.63
2018-12-24T09:59:30.371Z,6.37
2018-12-24T10:02:02.119Z,5.43
2018-12-24T10:04:44.048Z,5.37
2018-12-24T10:07:40.279Z,3.80
2018-12-24T10:10:14.782Z,5.83
2018-12-24T10:12:46.589Z,4.00
2018-12-24T10:15:18.470Z,4.60
2018-12-24T10:17:50.176Z,4.50
2018-12-24T10:20:20.263Z,3.80
2018-12-24T10:22:48.289Z,4.17
2018-12-24T10:25:16.856Z,4.47
2018-12-24T10:27:45.332Z,5.57
2018-12-24T10:30:14.310Z,4.13
2018-12-24T10:32:43.273Z,6.70
2018-12-24T10:35:12.397Z,4.93
2018-12-24T10:37:40.726Z,5.20
2018-12-24T10:40:15.539Z,4.97
2018-12-24T10:42:44.597Z,4.20
2018-12-24T10:45:16.720Z,5.10
2018-12-24T10:47:46.309Z,8.70
2018-12-24T10:50:14.552Z,7.70
2018-12-24T10:52:43.742Z,9.90
2018-12-24T10:55:12.428Z,7.83
2018-12-24T10:57:40.629Z,5.20
2018-12-24T11:00:10.262Z,4.50
2018-12-24T11:02:40.032Z,4.07
2018-12-24T11:05:08.332Z,4.57
2018-12-24T11:07:36.852Z,5.37
2018-12-24T11:10:08.511Z,5.30
2018-12-24T11:12:37.160Z,5.60
2018-12-24T11:15:07.238Z,4.60
2018-12-24T11:17:37.845Z,4.60
2018-12-24T11:20:06.477Z,4.40
2018-12-24T11:22:38.007Z,4.00
2018-12-24T11:25:06.444Z,4.90
2018-12-24T11:27:34.539Z,5.50
2018-12-24T11:30:04.865Z,7.97
2018-12-24T11:32:33.840Z,5.77
2018-12-24T11:35:02.692Z,7.10
2018-12-24T11:37:31.182Z,7.90
2018-12-24T11:39:59.444Z,8.67
2018-12-24T11:42:28.295Z,6.80
2018-12-24T11:44:56.731Z,6.83
2018-12-24T11:47:25.238Z,6.70
2018-12-24T11:49:54.456Z,7.57
2018-12-24T11:52:23.746Z,7.10
2018-12-24T11:54:53.518Z,6.43
2018-12-24T11:57:22.041Z,6.50
2018-12-24T11:59:50.913Z,8.73
2018-12-24T12:02:19.504Z,9.20
2018-12-24T12:04:48.411Z,7.93
2018-12-24T12:07:17.087Z,8.57
2018-12-24T12:09:48.534Z,7.30
2018-12-24T12:12:17.278Z,8.53
2018-12-24T12:14:45.639Z,7.50
2018-12-24T12:17:14.483Z,7.03
2018-12-24T12:19:43.556Z,6.37
2018-12-24T12:22:12.151Z,7.90
2018-12-24T12:24:40.586Z,7.10
2018-12-24T12:27:08.897Z,8.00
2018-12-24T12:29:38.108Z,7.63
2018-12-24T12:32:07.396Z,7.53
2018-12-24T12:34:36.380Z,7.30
2018-12-24T12:37:04.804Z,6.90
2018-12-24T12:39:33.076Z,7.27
2018-12-24T12:42:02.651Z,6.33
2018-12-24T12:44:31.625Z,6.10
2018-12-24T12:47:00.241Z,5.53
2018-12-24T12:49:30.571Z,6.10
2018-12-24T12:52:01.505Z,5.03
2018-12-24T12:54:31.784Z,5.77
2018-12-24T12:57:08.678Z,5.47
2018-12-24T12:59:37.918Z,6.50
2018-12-24T13:02:07.305Z,6.27
2018-12-24T13:04:35.764Z,5.60
2018-12-24T13:07:04.614Z,5.70
2018-12-24T13:09:33.044Z,5.53
2018-12-24T13:12:01.517Z,6.10
2018-12-24T13:14:31.360Z,5.67
2018-12-24T13:17:00.125Z,5.60
2018-12-24T13:19:28.240Z,5.80
2018-12-24T13:22:04.143Z,6.57
2018-12-24T13:24:26.950Z,5.83
2018-12-24T13:26:55.272Z,6.40
2018-12-24T13:29:24.004Z,6.87
2018-12-24T13:31:52.469Z,7.93
2018-12-24T13:34:20.977Z,8.00
2018-12-24T13:36:48.963Z,9.33
2018-12-24T13:39:17.790Z,10.07
2018-12-24T13:41:47.295Z,10.67
2018-12-24T13:44:16.555Z,11.53
2018-12-24T13:46:45.832Z,13.30
2018-12-24T13:49:14.681Z,13.20
2018-12-24T13:51:43.331Z,16.30
2018-12-24T13:54:11.975Z,13.67
2018-12-24T13:56:40.503Z,14.97
2018-12-24T13:59:08.914Z,14.47
2018-12-24T14:01:36.988Z,14.17
2018-12-24T14:04:05.674Z,12.57
2018-12-24T14:06:33.790Z,12.77
2018-12-24T14:09:02.106Z,15.37
2018-12-24T14:11:30.706Z,14.40
2018-12-24T14:14:00.092Z,14.50
2018-12-24T14:16:28.330Z,16.97
2018-12-24T14:18:57.539Z,17.83
2018-12-24T14:21:25.640Z,15.13
2018-12-24T14:23:54.214Z,14.93
2018-12-24T14:26:22.644Z,18.47
2018-12-24T14:28:52.417Z,19.00
2018-12-24T14:31:20.920Z,17.43
2018-12-24T14:33:49.761Z,14.23
2018-12-24T14:36:17.933Z,13.13
2018-12-24T14:38:46.213Z,11.37
2018-12-24T14:41:14.598Z,10.17
2018-12-24T14:43:43.685Z,8.83
2018-12-24T14:46:13.770Z,8.47
2018-12-24T14:48:42.187Z,7.90
2018-12-24T14:51:10.886Z,8.97
2018-12-24T14:53:45.532Z,8.17
2018-12-24T14:56:15.280Z,8.77
2018-12-24T14:58:43.684Z,8.60
2018-12-24T15:01:12.365Z,8.27
2018-12-24T15:03:40.638Z,8.53
2018-12-24T15:06:10.556Z,8.17
2018-12-24T15:08:39.476Z,8.60
2018-12-24T15:11:07.805Z,11.57
2018-12-24T15:13:36.488Z,14.03
2018-12-24T15:16:05.138Z,11.13
2018-12-24T15:18:33.378Z,14.50
2018-12-24T15:21:02.325Z,12.10
2018-12-24T15:23:30.499Z,14.83
2018-12-24T15:25:59.170Z,11.90
2018-12-24T15:28:28.188Z,11.30
2018-12-24T15:30:56.469Z,14.00
2018-12-24T15:33:24.847Z,13.70
2018-12-24T15:35:53.426Z,10.17
2018-12-24T15:38:21.904Z,12.27
2018-12-24T15:40:53.183Z,12.73
2018-12-24T15:43:21.694Z,10.83
2018-12-24T15:45:53.142Z,12.97
2018-12-24T15:48:21.688Z,14.50
2018-12-24T15:50:50.564Z,12.17
2018-12-24T15:53:18.993Z,12.00
2018-12-24T15:55:47.514Z,10.20
2018-12-24T15:58:15.743Z,13.03
2018-12-24T16:00:44.379Z,12.70
2018-12-24T16:03:13.075Z,14.57
2018-12-24T16:05:41.559Z,12.37
2018-12-24T16:08:09.750Z,9.93
2018-12-24T16:10:39.522Z,10.40
2018-12-24T16:13:08.002Z,8.27
2018-12-24T16:15:36.296Z,9.50
2018-12-24T16:18:04.396Z,9.10
2018-12-24T16:20:32.825Z,8.63
2018-12-24T16:23:02.176Z,8.33
2018-12-24T16:25:30.492Z,9.60
2018-12-24T16:27:59.107Z,10.33
2018-12-24T16:30:27.396Z,10.30
2018-12-24T16:32:57.205Z,8.83
2018-12-24T16:35:28.637Z,10.90
2018-12-24T16:37:56.765Z,11.73
2018-12-24T16:40:25.207Z,10.33
2018-12-24T16:42:53.554Z,11.37
2018-12-24T16:45:21.912Z,10.90
2018-12-24T16:47:53.146Z,11.90
2018-12-24T16:50:23.906Z,12.40
2018-12-24T16:52:52.777Z,12.50
2018-12-24T16:55:21.196Z,10.93
2018-12-24T16:57:49.736Z,11.50
2018-12-24T17:00:18.697Z,10.43
2018-12-24T17:02:48.181Z,11.40
2018-12-24T17:05:16.534Z,9.30
2018-12-24T17:07:44.992Z,10.20
2018-12-24T17:10:13.795Z,10.10
2018-12-24T17:12:46.617Z,10.63
2018-12-24T17:15:15.178Z,9.60
2018-12-24T17:17:43.630Z,11.00
2018-12-24T17:20:12.737Z,11.00
2018-12-24T17:22:42.016Z,11.90
2018-12-24T17:25:10.509Z,10.00
2018-12-24T17:27:38.918Z,9.73
2018-12-24T17:30:07.621Z,8.80
2018-12-24T17:32:35.723Z,10.30
2018-12-24T17:35:04.779Z,10.03
2018-12-24T17:37:33.342Z,12.10
2018-12-24T17:40:05.366Z,9.33
2018-12-24T17:42:33.875Z,9.97
2018-12-24T17:45:04.126Z,9.70
2018-12-24T17:47:32.800Z,13.63
2018-12-24T17:50:03.029Z,9.97
2018-12-24T17:52:31.359Z,14.67
2018-12-24T17:55:00.257Z,11.67
2018-12-24T17:57:29.091Z,9.37
2018-12-24T17:59:57.463Z,10.13
2018-12-24T18:02:25.785Z,10.10
2018-12-24T18:04:55.336Z,11.23
2018-12-24T18:07:24.017Z,9.43
2018-12-24T18:09:52.271Z,8.50
2018-12-24T18:12:20.746Z,9.83
2018-12-24T18:14:54.313Z,8.53
2018-12-24T18:17:24.849Z,7.93
2018-12-24T18:19:53.212Z,10.70
2018-12-24T18:22:21.802Z,10.27
2018-12-24T18:24:55.078Z,10.23
2018-12-24T18:27:23.336Z,8.20
2018-12-24T18:29:51.787Z,9.23
2018-12-24T18:32:20.433Z,9.10
2018-12-24T18:35:00.370Z,10.63
2018-12-24T18:37:28.918Z,11.37
2018-12-24T18:39:57.281Z,11.43
2018-12-24T18:42:25.593Z,7.50
2018-12-24T18:44:54.035Z,7.20
2018-12-24T18:47:22.281Z,6.93
2018-12-24T18:49:51.497Z,6.33
2018-12-24T18:52:22.813Z,7.10
2018-12-24T18:54:51.198Z,8.37
2018-12-24T18:57:19.355Z,7.77
2018-12-24T18:59:51.305Z,6.37
2018-12-24T19:02:19.993Z,8.40
2018-12-24T19:04:49.555Z,8.70
2018-12-24T19:07:18.655Z,9.20
2018-12-24T19:09:47.608Z,5.53
2018-12-24T19:12:18.007Z,5.97
2018-12-24T19:14:47.115Z,6.03
2018-12-24T19:17:15.854Z,7.43
2018-12-24T19:19:44.946Z,4.50
2018-12-24T19:22:13.634Z,7.30
2018-12-24T19:24:41.933Z,5.97
2018-12-24T19:27:10.298Z,6.97
2018-12-24T19:29:38.777Z,5.40
2018-12-24T19:32:06.994Z,3.13
2018-12-24T19:34:35.444Z,4.63
2018-12-24T19:37:03.994Z,5.87
2018-12-24T19:39:32.387Z,6.30
2018-12-24T19:42:00.559Z,4.63
2018-12-24T19:44:28.712Z,5.77
2018-12-24T19:46:57.115Z,5.00
2018-12-24T19:49:25.682Z,6.03
2018-12-24T19:51:54.372Z,4.90
2018-12-24T19:54:22.629Z,6.80
2018-12-24T19:56:51.052Z,5.63
2018-12-24T19:59:20.240Z,7.37
2018-12-24T20:01:48.685Z,6.90
2018-12-24T20:04:18.241Z,7.00
2018-12-24T20:06:46.937Z,7.40
2018-12-24T20:09:16.298Z,7.20
2018-12-24T20:11:45.005Z,7.13
2018-12-24T20:14:13.900Z,8.90
2018-12-24T20:16:42.709Z,7.03
2018-12-24T20:19:11.828Z,7.67
2018-12-24T20:21:40.467Z,8.60
2018-12-24T20:24:08.870Z,10.60
2018-12-24T20:26:37.224Z,8.53
2018-12-24T20:29:05.698Z,6.83
2018-12-24T20:31:34.348Z,7.13
2018-12-24T20:34:02.510Z,6.80
2018-12-24T20:36:33.818Z,6.87
2018-12-24T20:39:02.201Z,6.83
2018-12-24T20:41:30.665Z,6.23
2018-12-24T20:43:59.318Z,7.10
2018-12-24T20:46:28.106Z,8.27
2018-12-24T20:48:56.125Z,8.27
2018-12-24T20:51:24.942Z,8.73
2018-12-24T20:53:53.028Z,7.43
2018-12-24T20:56:21.579Z,7.50
2018-12-24T20:58:49.901Z,7.63
2018-12-24T21:01:18.475Z,6.47
2018-12-24T21:03:47.048Z,7.03
2018-12-24T21:06:16.935Z,6.13
2018-12-24T21:08:45.502Z,7.13
2018-12-24T21:11:14.237Z,7.30
2018-12-24T21:13:43.113Z,7.90
2018-12-24T21:16:13.364Z,7.73
2018-12-24T21:18:44.381Z,7.23
2018-12-24T21:21:13.783Z,7.10
2018-12-24T21:23:45.324Z,6.77
2018-12-24T21:26:17.205Z,7.83
2018-12-24T21:28:45.589Z,8.40
2018-12-24T21:31:15.152Z,7.10
2018-12-24T21:33:53.037Z,8.37
2018-12-24T21:36:29.700Z,9.00
2018-12-24T21:38:57.800Z,14.30
2018-12-24T21:41:27.046Z,8.07
2018-12-24T21:43:57.575Z,8.50
2018-12-24T21:46:25.817Z,7.47
2018-12-24T21:48:54.640Z,6.80
2018-12-24T21:51:24.301Z,7.47
2018-12-24T21:53:52.734Z,7.40
2018-12-24T21:56:23.007Z,8.47
2018-12-24T21:58:58.855Z,7.77
2018-12-24T22:01:27.095Z,6.93
2018-12-24T22:03:55.656Z,7.40
2018-12-24T22:06:25.793Z,7.40
2018-12-24T22:08:56.213Z,7.17
2018-12-24T22:11:26.088Z,7.53
2018-12-24T22:14:00.679Z,7.83
2018-12-24T22:16:30.260Z,7.37
2018-12-24T22:18:59.159Z,6.77
2018-12-24T22:21:27.690Z,7.30
2018-12-24T22:23:56.591Z,7.33
2018-12-24T22:26:24.926Z,7.17
2018-12-24T22:28:53.850Z,6.33
2018-12-24T22:31:24.386Z,5.87
2018-12-24T22:33:52.917Z,5.03
2018-12-24T22:36:22.175Z,5.77
2018-12-24T22:38:51.211Z,6.40
2018-12-24T22:41:22.493Z,6.10
2018-12-24T22:43:51.279Z,6.43
2018-12-24T22:46:20.372Z,6.30
2018-12-24T22:48:51.506Z,5.03
2018-12-24T22:51:20.437Z,5.70
2018-12-24T22:53:48.644Z,4.30
2018-12-24T22:56:16.930Z,5.57
2018-12-24T22:58:45.271Z,5.60
2018-12-24T23:01:13.916Z,7.03
2018-12-24T23:03:43.113Z,6.17
2018-12-24T23:06:11.914Z,5.17
2018-12-24T23:08:40.061Z,5.20
2018-12-24T23:11:08.377Z,5.23
2018-12-24T23:13:36.528Z,4.73
2018-12-24T23:16:04.903Z,4.53
2018-12-24T23:18:33.287Z,4.80
2018-12-24T23:21:01.711Z,5.90
2018-12-24T23:23:30.359Z,6.40
2018-12-24T23:25:58.975Z,6.97
2018-12-24T23:28:27.366Z,6.47
2018-12-24T23:30:55.773Z,6.70
2018-12-24T23:33:24.512Z,5.97
2018-12-24T23:35:52.740Z,5.93
2018-12-24T23:38:20.830Z,5.80
2018-12-24T23:40:50.395Z,7.40
2018-12-24T23:43:18.508Z,7.43
2018-12-24T23:45:46.768Z,7.23
2018-12-24T23:48:14.902Z,7.10
2018-12-24T23:50:44.506Z,6.80
2018-12-24T23:53:13.257Z,6.50
2018-12-24T23:55:42.780Z,6.50
2018-12-24T23:58:10.918Z,6.07
